Time;durP1;ratioP1;P1;durP2;ratioP2;P2;SDS_P1;SDS_P2;PMS_P1;PMS_P2;Temp;Humidity;BMP_temperature;BMP_pressure;BME280_temperature;BME280_humidity;BME280_pressure;Samples;Min_cycle;Max_cycle;Signal;HPM_P1;HPM_P2
2023/07/13 00:01:14;;;;;;;14.32;4.25;;;15.20;99.90;;;;;;7374525;19;20085;-66
2023/07/13 00:03:41;;;;;;;9.18;3.10;;;15.20;99.90;;;;;;7364748;19;20037;-67
2023/07/13 00:06:08;;;;;;;10.23;3.38;;;15.10;99.90;;;;;;7366261;19;20457;-66
2023/07/13 00:08:35;;;;;;;8.77;3.25;;;15.10;99.90;;;;;;7366059;19;20022;-58
2023/07/13 00:11:03;;;;;;;9.43;3.10;;;15.10;99.90;;;;;;7372222;19;20509;-58
2023/07/13 00:13:30;;;;;;;10.00;3.35;;;15.00;99.90;;;;;;7369963;19;20089;-65
2023/07/13 00:15:58;;;;;;;10.38;3.40;;;15.00;99.90;;;;;;7373676;19;20017;-66
2023/07/13 00:18:24;;;;;;;11.07;3.03;;;15.10;99.90;;;;;;7369931;19;20434;-64
2023/07/13 00:20:51;;;;;;;9.38;3.33;;;15.10;99.90;;;;;;7366014;19;20509;-66
2023/07/13 00:23:17;;;;;;;10.60;3.63;;;15.10;99.90;;;;;;7366318;19;20419;-66
2023/07/13 00:25:43;;;;;;;10.13;3.72;;;15.10;99.90;;;;;;7369904;19;20014;-66
2023/07/13 00:28:09;;;;;;;10.20;3.40;;;15.10;99.90;;;;;;7374799;19;20034;-66
2023/07/13 00:30:36;;;;;;;12.30;3.10;;;15.20;99.90;;;;;;7368525;19;20022;-58
2023/07/13 00:33:02;;;;;;;10.13;3.03;;;15.20;99.90;;;;;;7365229;19;20453;-58
2023/07/13 00:35:30;;;;;;;9.95;3.15;;;15.10;99.90;;;;;;7375472;19;20025;-66
2023/07/13 00:37:57;;;;;;;9.13;3.00;;;15.20;99.90;;;;;;7376210;19;20386;-59
2023/07/13 00:40:25;;;;;;;9.10;3.45;;;15.20;99.90;;;;;;7372013;19;20025;-59
2023/07/13 00:42:53;;;;;;;11.57;3.67;;;15.20;99.90;;;;;;7371443;19;20018;-61
2023/07/13 00:45:19;;;;;;;9.07;3.50;;;15.20;99.90;;;;;;7375379;19;20022;-59
2023/07/13 00:47:45;;;;;;;12.93;3.30;;;15.20;99.90;;;;;;7377883;19;20015;-59
2023/07/13 00:50:16;;;;;;;8.73;3.28;;;15.20;99.90;;;;;;7372109;19;20035;-59
2023/07/13 00:52:46;;;;;;;9.68;3.08;;;15.30;99.90;;;;;;7376746;19;20018;-65
2023/07/13 00:55:14;;;;;;;11.43;3.65;;;15.30;99.90;;;;;;7372577;19;20472;-67
2023/07/13 00:57:41;;;;;;;8.73;3.10;;;15.30;99.90;;;;;;7376325;19;20090;-67
2023/07/13 01:00:09;;;;;;;12.50;3.67;;;15.30;99.90;;;;;;7374512;19;20046;-67
2023/07/13 01:02:42;;;;;;;10.07;3.47;;;15.30;99.90;;;;;;7371518;19;20401;-68
2023/07/13 01:05:11;;;;;;;12.60;4.03;;;15.30;99.90;;;;;;7362986;19;20031;-70
2023/07/13 01:07:39;;;;;;;12.55;3.88;;;15.30;99.90;;;;;;7375893;19;20011;-67
2023/07/13 01:10:07;;;;;;;9.50;3.55;;;15.30;99.90;;;;;;7373057;19;20025;-67
2023/07/13 01:12:34;;;;;;;14.75;4.05;;;15.30;99.90;;;;;;7365742;19;20019;-67
2023/07/13 01:15:01;;;;;;;12.30;4.25;;;15.30;99.90;;;;;;7373763;19;20032;-66
2023/07/13 01:17:38;;;;;;;16.63;3.90;;;15.30;99.90;;;;;;7368674;19;20024;-64
2023/07/13 01:20:08;;;;;;;9.90;3.70;;;15.30;99.90;;;;;;7375751;19;20018;-66
2023/07/13 01:22:34;;;;;;;9.48;3.33;;;15.30;99.90;;;;;;7369206;19;20141;-59
2023/07/13 01:25:02;;;;;;;10.38;3.67;;;15.30;99.90;;;;;;7364491;19;20495;-67
2023/07/13 01:27:33;;;;;;;13.35;3.53;;;15.30;99.90;;;;;;7375379;19;20446;-65
2023/07/13 01:30:03;;;;;;;9.27;3.00;;;15.30;99.90;;;;;;7374399;19;20111;-66
2023/07/13 01:32:32;;;;;;;11.20;3.53;;;15.30;99.90;;;;;;7372928;19;20073;-67
2023/07/13 01:34:58;;;;;;;10.80;3.22;;;15.30;99.90;;;;;;7372076;19;20416;-65
2023/07/13 01:37:27;;;;;;;11.35;3.67;;;15.30;99.90;;;;;;7369415;19;20022;-67
2023/07/13 01:39:53;;;;;;;11.32;3.80;;;15.30;99.90;;;;;;7376809;19;20035;-67
2023/07/13 01:42:19;;;;;;;12.65;4.00;;;15.40;99.90;;;;;;7375917;19;20043;-67
2023/07/13 01:44:48;;;;;;;13.70;3.58;;;15.30;99.90;;;;;;7375910;19;20025;-66
2023/07/13 01:47:14;;;;;;;13.30;3.75;;;15.40;99.90;;;;;;7375583;19;20046;-66
2023/07/13 01:49:41;;;;;;;11.55;3.60;;;15.30;99.90;;;;;;7375218;19;20015;-65
2023/07/13 01:52:07;;;;;;;11.68;4.28;;;15.40;99.90;;;;;;7377647;19;20022;-65
2023/07/13 01:54:34;;;;;;;11.68;4.13;;;15.40;99.90;;;;;;7379052;19;20098;-66
2023/07/13 01:57:00;;;;;;;8.80;3.67;;;15.40;99.90;;;;;;7374939;19;20703;-67
2023/07/13 01:59:27;;;;;;;12.50;3.63;;;15.40;99.90;;;;;;7374084;19;20405;-66
2023/07/13 02:01:53;;;;;;;17.33;4.50;;;15.40;99.90;;;;;;7371687;19;20022;-66
2023/07/13 02:04:20;;;;;;;11.02;3.22;;;15.40;99.90;;;;;;7373004;19;20892;-66
2023/07/13 02:06:47;;;;;;;13.07;3.92;;;15.40;99.90;;;;;;7375979;19;20094;-65
2023/07/13 02:09:15;;;;;;;9.23;3.35;;;15.30;99.90;;;;;;7375964;19;20362;-66
2023/07/13 02:11:42;;;;;;;14.07;4.70;;;15.30;99.90;;;;;;7373812;19;20482;-66
2023/07/13 02:14:08;;;;;;;11.38;4.55;;;15.20;99.90;;;;;;7375966;19;20025;-67
2023/07/13 02:16:34;;;;;;;13.13;4.32;;;15.20;99.90;;;;;;7372066;19;20018;-67
2023/07/13 02:19:01;;;;;;;11.95;3.65;;;15.10;99.90;;;;;;7369615;19;20037;-67
2023/07/13 02:21:27;;;;;;;10.38;3.95;;;15.00;99.90;;;;;;7370661;19;20014;-67
2023/07/13 02:23:54;;;;;;;10.82;4.22;;;14.90;99.90;;;;;;7360858;19;20444;-59
2023/07/13 02:26:20;;;;;;;9.82;3.90;;;14.90;99.90;;;;;;7372093;19;20085;-59
2023/07/13 02:28:47;;;;;;;15.45;4.10;;;14.80;99.90;;;;;;7369874;19;20038;-59
2023/07/13 02:31:15;;;;;;;14.50;3.97;;;14.80;99.90;;;;;;7370217;19;20022;-60
2023/07/13 02:33:43;;;;;;;14.98;3.80;;;14.80;99.90;;;;;;7365896;19;20015;-59
2023/07/13 02:36:10;;;;;;;13.93;4.05;;;14.70;99.90;;;;;;7362120;19;20021;-59
2023/07/13 02:38:37;;;;;;;11.63;4.28;;;14.70;99.90;;;;;;7369875;19;20025;-59
2023/07/13 02:41:05;;;;;;;12.95;4.40;;;14.60;99.90;;;;;;7372023;19;20018;-58
2023/07/13 02:43:31;;;;;;;12.85;3.85;;;14.60;99.90;;;;;;7369191;19;20105;-59
2023/07/13 02:46:09;;;;;;;14.00;4.97;;;14.50;99.90;;;;;;7370075;19;20026;-59
2023/07/13 02:48:37;;;;;;;11.10;3.97;;;14.50;99.90;;;;;;7361583;19;20037;-59
2023/07/13 02:51:03;;;;;;;11.73;3.78;;;14.50;99.90;;;;;;7373149;19;20014;-58
2023/07/13 02:53:30;;;;;;;15.73;4.78;;;14.50;99.90;;;;;;7367976;19;20038;-59
2023/07/13 02:55:57;;;;;;;11.57;4.32;;;14.40;99.90;;;;;;7367995;19;20375;-67
2023/07/13 02:58:23;;;;;;;13.73;4.28;;;14.40;99.90;;;;;;7364201;19;20038;-67
2023/07/13 03:00:50;;;;;;;10.07;4.35;;;14.40;99.90;;;;;;7362976;19;20022;-67
2023/07/13 03:03:17;;;;;;;12.45;4.38;;;14.40;99.90;;;;;;7367815;19;20015;-67
2023/07/13 03:05:49;;;;;;;9.93;3.90;;;14.40;99.90;;;;;;7370944;19;20559;-67
2023/07/13 03:08:21;;;;;;;14.40;5.10;;;14.40;99.90;;;;;;7368793;19;20014;-66
2023/07/13 03:10:49;;;;;;;13.60;4.65;;;14.40;99.90;;;;;;7367516;19;20576;-67
2023/07/13 03:13:15;;;;;;;15.05;4.88;;;14.40;99.90;;;;;;7369988;19;20481;-67
2023/07/13 03:15:42;;;;;;;15.02;4.70;;;14.50;99.90;;;;;;7366622;19;20600;-67
2023/07/13 03:18:09;;;;;;;14.95;4.72;;;14.50;99.90;;;;;;7370093;19;20023;-67
2023/07/13 03:20:35;;;;;;;15.10;4.30;;;14.50;99.90;;;;;;7372447;19;20052;-67
2023/07/13 03:23:03;;;;;;;15.57;4.72;;;14.50;99.90;;;;;;7372018;19;20879;-67
2023/07/13 03:25:30;;;;;;;15.30;4.78;;;14.50;99.90;;;;;;7368393;19;20028;-67
2023/07/13 03:27:56;;;;;;;13.88;5.30;;;14.50;99.90;;;;;;7367065;19;20026;-67
2023/07/13 03:30:23;;;;;;;15.25;4.95;;;14.50;99.90;;;;;;7366614;19;20073;-67
2023/07/13 03:32:50;;;;;;;15.88;5.13;;;14.50;99.90;;;;;;7366900;19;20109;-67
2023/07/13 03:35:17;;;;;;;15.05;4.93;;;14.50;99.90;;;;;;7369075;19;20411;-61
2023/07/13 03:37:44;;;;;;;13.63;4.65;;;14.50;99.90;;;;;;7363386;19;20026;-59
2023/07/13 03:40:16;;;;;;;11.13;4.55;;;14.60;99.90;;;;;;7362262;19;20906;-59
2023/07/13 03:42:44;;;;;;;17.38;4.85;;;14.60;99.90;;;;;;7370182;19;20022;-59
2023/07/13 03:45:11;;;;;;;15.38;5.18;;;14.70;99.90;;;;;;7363567;19;20427;-59
2023/07/13 03:47:38;;;;;;;13.18;4.72;;;14.70;99.90;;;;;;7365273;19;20014;-57
2023/07/13 03:50:05;;;;;;;12.88;5.05;;;14.80;99.90;;;;;;7366993;19;20023;-58
2023/07/13 03:52:31;;;;;;;13.48;4.97;;;14.80;99.90;;;;;;7361019;19;20034;-57
2023/07/13 03:54:57;;;;;;;16.38;5.75;;;14.90;99.90;;;;;;7359910;19;20537;-56
2023/07/13 03:57:26;;;;;;;16.63;6.13;;;14.80;99.90;;;;;;7367767;19;20018;-57
2023/07/13 03:59:52;;;;;;;19.25;6.57;;;14.70;99.90;;;;;;7364443;19;20121;-64
2023/07/13 04:02:19;;;;;;;16.00;6.38;;;14.60;99.90;;;;;;7367312;19;20014;-56
2023/07/13 04:04:45;;;;;;;22.77;6.43;;;14.60;99.90;;;;;;7361710;19;20015;-57
2023/07/13 04:07:12;;;;;;;17.80;6.57;;;14.60;99.90;;;;;;7360947;19;20018;-64
2023/07/13 04:09:40;;;;;;;17.80;6.20;;;14.60;99.90;;;;;;7365280;19;20021;-65
2023/07/13 04:12:07;;;;;;;19.65;8.35;;;14.60;99.90;;;;;;7373373;19;20478;-57
2023/07/13 04:14:33;;;;;;;14.23;6.43;;;14.60;99.90;;;;;;7370758;19;20011;-57
2023/07/13 04:17:02;;;;;;;21.65;7.90;;;14.60;99.90;;;;;;7367380;19;20766;-65
2023/07/13 04:19:28;;;;;;;20.38;7.15;;;14.60;99.90;;;;;;7368458;19;20018;-65
2023/07/13 04:21:55;;;;;;;17.35;7.40;;;14.60;99.90;;;;;;7370050;19;20033;-65
2023/07/13 04:24:21;;;;;;;19.00;6.82;;;14.60;99.90;;;;;;7371421;19;20025;-65
2023/07/13 04:26:47;;;;;;;17.88;6.82;;;14.60;99.90;;;;;;7374492;19;20401;-65
2023/07/13 04:29:13;;;;;;;16.27;6.47;;;14.60;99.90;;;;;;7373529;19;20666;-65
2023/07/13 04:31:39;;;;;;;22.80;7.18;;;14.60;99.90;;;;;;7364184;19;20014;-65
2023/07/13 04:34:06;;;;;;;17.45;7.18;;;14.60;99.90;;;;;;7373294;19;20025;-65
2023/07/13 04:36:32;;;;;;;16.58;6.40;;;14.60;99.90;;;;;;7369689;19;20341;-65
2023/07/13 04:38:59;;;;;;;17.85;6.50;;;14.60;99.90;;;;;;7371700;19;20021;-65
2023/07/13 04:41:26;;;;;;;14.75;6.10;;;14.60;99.90;;;;;;7369532;19;20022;-65
2023/07/13 04:43:52;;;;;;;18.85;6.72;;;14.70;99.90;;;;;;7365261;19;20023;-65
2023/07/13 04:46:19;;;;;;;16.50;5.93;;;14.80;99.90;;;;;;7367441;19;20157;-65
2023/07/13 04:48:45;;;;;;;16.33;6.13;;;14.80;99.90;;;;;;7368610;19;20433;-64
2023/07/13 04:51:11;;;;;;;18.70;6.47;;;14.80;99.90;;;;;;7372997;19;20029;-64
2023/07/13 04:53:38;;;;;;;15.38;5.75;;;14.80;99.90;;;;;;7371250;19;20018;-65
2023/07/13 04:56:04;;;;;;;17.80;6.40;;;14.80;99.90;;;;;;7372869;19;20537;-65
2023/07/13 04:58:31;;;;;;;20.30;6.18;;;14.90;99.90;;;;;;7375028;19;20018;-65
2023/07/13 05:01:02;;;;;;;13.90;6.00;;;14.90;99.90;;;;;;7372415;19;20369;-58
2023/07/13 05:03:31;;;;;;;15.02;6.47;;;14.90;99.90;;;;;;7372300;19;20046;-58
2023/07/13 05:06:00;;;;;;;18.40;5.70;;;15.00;99.90;;;;;;7375532;19;20061;-58
2023/07/13 05:08:26;;;;;;;12.80;5.95;;;15.10;99.90;;;;;;7369544;19;20035;-65
2023/07/13 05:10:53;;;;;;;16.42;6.68;;;15.20;99.90;;;;;;7374820;19;20517;-63
2023/07/13 05:13:20;;;;;;;15.55;5.55;;;15.30;99.90;;;;;;7376566;19;20469;-64
2023/07/13 05:15:54;;;;;;;13.75;5.50;;;15.50;99.90;;;;;;7371027;19;20026;-65
2023/07/13 05:18:20;;;;;;;14.65;5.30;;;15.70;99.90;;;;;;7366370;19;20022;-65
2023/07/13 05:20:47;;;;;;;15.55;5.57;;;16.00;99.90;;;;;;7374759;19;20101;-65
2023/07/13 05:23:13;;;;;;;12.50;4.60;;;16.10;99.90;;;;;;7370135;19;20378;-65
2023/07/13 05:25:39;;;;;;;12.00;5.47;;;16.30;99.90;;;;;;7374671;19;20326;-64
2023/07/13 05:28:05;;;;;;;10.80;4.90;;;16.40;99.90;;;;;;7372081;19;20052;-63
2023/07/13 05:30:33;;;;;;;14.55;5.60;;;16.50;99.90;;;;;;7365545;19;20018;-65
2023/07/13 05:33:00;;;;;;;17.00;4.97;;;16.50;99.90;;;;;;7369192;19;20022;-64
2023/07/13 05:35:26;;;;;;;10.95;5.07;;;16.70;99.90;;;;;;7370895;19;20015;-65
2023/07/13 05:37:53;;;;;;;12.98;5.93;;;16.70;99.90;;;;;;7365342;19;21151;-66
2023/07/13 05:40:19;;;;;;;14.85;4.13;;;16.80;99.90;;;;;;7372722;19;20761;-63
2023/07/13 05:42:45;;;;;;;16.85;4.80;;;17.00;99.90;;;;;;7367885;19;20473;-63
2023/07/13 05:45:11;;;;;;;13.70;4.25;;;17.10;99.90;;;;;;7366769;19;20378;-65
2023/07/13 05:47:38;;;;;;;10.95;4.13;;;17.30;99.90;;;;;;7368790;19;20114;-67
2023/07/13 05:50:04;;;;;;;11.82;4.00;;;17.50;99.90;;;;;;7369245;19;20029;-61
2023/07/13 05:52:31;;;;;;;13.02;4.65;;;17.80;99.90;;;;;;7381035;19;20098;-62
2023/07/13 05:54:57;;;;;;;18.98;10.52;;;18.00;99.90;;;;;;7378783;19;20018;-65
2023/07/13 05:57:23;;;;;;;22.30;16.40;;;18.10;99.90;;;;;;7377092;19;20014;-62
2023/07/13 05:59:49;;;;;;;18.60;8.40;;;18.40;99.90;;;;;;7374568;19;20026;-63
2023/07/13 06:02:16;;;;;;;21.27;14.45;;;18.50;99.90;;;;;;7381252;19;20413;-63
2023/07/13 06:04:42;;;;;;;33.78;27.33;;;18.70;99.90;;;;;;7381670;19;20018;-62
2023/07/13 06:07:08;;;;;;;22.63;14.98;;;18.90;99.90;;;;;;7366503;19;20022;-60
2023/07/13 06:09:34;;;;;;;16.30;7.72;;;18.90;99.90;;;;;;7374431;19;20943;-61
2023/07/13 06:12:01;;;;;;;14.35;6.75;;;19.20;99.90;;;;;;7371313;19;20024;-61
2023/07/13 06:14:27;;;;;;;13.50;4.90;;;19.10;99.90;;;;;;7374881;19;20501;-61
2023/07/13 06:16:54;;;;;;;14.93;4.55;;;19.20;99.90;;;;;;7373621;19;20023;-61
2023/07/13 06:19:20;;;;;;;10.95;4.50;;;19.40;99.90;;;;;;7375621;19;20019;-62
2023/07/13 06:21:46;;;;;;;11.10;4.80;;;19.30;99.90;;;;;;7374428;19;20592;-63
2023/07/13 06:24:12;;;;;;;43.88;38.13;;;19.40;99.90;;;;;;7378744;19;20054;-62
2023/07/13 06:26:39;;;;;;;73.53;63.92;;;19.40;99.90;;;;;;7372530;19;20054;-62
2023/07/13 06:29:05;;;;;;;24.45;16.67;;;19.50;99.90;;;;;;7376428;19;20030;-62
2023/07/13 06:31:32;;;;;;;13.30;5.75;;;19.70;99.90;;;;;;7374586;19;20089;-62
2023/07/13 06:33:58;;;;;;;16.73;12.80;;;20.00;99.90;;;;;;7379361;19;20078;-62
2023/07/13 06:36:24;;;;;;;11.30;4.72;;;19.80;99.90;;;;;;7374925;19;20564;-66
2023/07/13 06:38:50;;;;;;;8.52;3.28;;;20.00;99.90;;;;;;7373714;19;20061;-66
2023/07/13 06:41:17;;;;;;;10.20;3.22;;;20.10;99.90;;;;;;7376287;19;20056;-66
2023/07/13 06:43:43;;;;;;;11.70;3.63;;;20.00;99.90;;;;;;7371842;19;20067;-66
2023/07/13 06:46:10;;;;;;;14.32;3.30;;;19.90;99.90;;;;;;7369524;19;20570;-65
2023/07/13 06:48:36;;;;;;;12.45;3.42;;;20.00;99.90;;;;;;7370295;19;20372;-64
2023/07/13 06:51:02;;;;;;;7.93;3.33;;;19.90;99.90;;;;;;7370009;19;20032;-65
2023/07/13 06:53:28;;;;;;;10.95;3.10;;;20.00;99.90;;;;;;7373500;19;20019;-65
2023/07/13 06:55:55;;;;;;;10.73;5.35;;;19.80;99.90;;;;;;7372551;19;20026;-66
2023/07/13 06:58:22;;;;;;;21.40;11.95;;;19.70;99.90;;;;;;7370431;19;20055;-60
2023/07/13 07:00:51;;;;;;;33.85;26.35;;;19.60;99.90;;;;;;7368333;19;20014;-62
2023/07/13 07:03:18;;;;;;;11.25;5.88;;;19.50;99.90;;;;;;7367629;19;20047;-62
2023/07/13 07:05:44;;;;;;;34.95;30.13;;;19.50;99.90;;;;;;7368004;19;20710;-62
2023/07/13 07:08:10;;;;;;;18.20;10.75;;;19.50;99.90;;;;;;7367358;19;20022;-62
2023/07/13 07:10:36;;;;;;;19.50;11.43;;;19.50;99.90;;;;;;7368211;19;20014;-62
2023/07/13 07:13:04;;;;;;;10.00;4.13;;;19.60;99.90;;;;;;7368959;19;20018;-61
2023/07/13 07:15:30;;;;;;;10.70;4.30;;;19.50;99.90;;;;;;7370678;19;20649;-58
2023/07/13 07:17:57;;;;;;;11.48;3.30;;;19.50;99.90;;;;;;7372015;19;20094;-60
2023/07/13 07:20:23;;;;;;;10.52;3.95;;;19.60;99.90;;;;;;7370924;19;20022;-61
2023/07/13 07:22:49;;;;;;;7.45;3.65;;;19.40;99.90;;;;;;7369424;19;20022;-61
2023/07/13 07:25:16;;;;;;;9.55;3.35;;;19.40;99.90;;;;;;7366715;19;20042;-62
2023/07/13 07:27:42;;;;;;;10.98;4.28;;;19.30;99.90;;;;;;7370556;19;20042;-68
2023/07/13 07:30:08;;;;;;;10.73;3.85;;;19.30;99.90;;;;;;7372843;19;20936;-68
2023/07/13 07:32:35;;;;;;;9.35;3.80;;;19.30;99.90;;;;;;7365847;19;20023;-60
2023/07/13 07:35:01;;;;;;;46.00;35.10;;;19.20;99.90;;;;;;7370961;19;20071;-58
2023/07/13 07:37:27;;;;;;;10.85;3.83;;;19.30;99.90;;;;;;7367754;19;20498;-59
2023/07/13 07:39:54;;;;;;;11.27;4.45;;;19.10;99.90;;;;;;7365475;19;20021;-58
2023/07/13 07:42:20;;;;;;;14.18;4.70;;;19.00;99.90;;;;;;7370056;19;20394;-58
2023/07/13 07:44:47;;;;;;;12.40;4.18;;;19.10;99.90;;;;;;7376731;19;20022;-58
2023/07/13 07:47:13;;;;;;;13.60;4.82;;;19.10;99.90;;;;;;7379749;19;20014;-65
2023/07/13 07:49:40;;;;;;;10.70;4.13;;;19.10;99.90;;;;;;7376255;19;20026;-65
2023/07/13 07:52:07;;;;;;;11.30;4.30;;;19.00;99.90;;;;;;7375693;19;20022;-66
2023/07/13 07:54:33;;;;;;;11.70;4.70;;;18.90;99.90;;;;;;7381344;19;20029;-60
2023/07/13 07:57:00;;;;;;;11.73;4.63;;;18.90;99.90;;;;;;7380808;19;20014;-59
2023/07/13 07:59:26;;;;;;;17.63;4.18;;;18.80;99.90;;;;;;7371658;19;20010;-58
2023/07/13 08:01:52;;;;;;;10.38;4.30;;;18.90;99.90;;;;;;7367041;19;20018;-59
2023/07/13 08:04:19;;;;;;;10.13;4.38;;;19.00;99.90;;;;;;7377669;19;20089;-57
2023/07/13 08:06:45;;;;;;;11.20;3.80;;;19.00;99.90;;;;;;7374889;19;20031;-57
2023/07/13 08:09:11;;;;;;;12.45;4.18;;;19.30;99.90;;;;;;7373801;19;20482;-58
2023/07/13 08:11:38;;;;;;;12.85;4.97;;;19.30;99.90;;;;;;7374478;19;20018;-58
2023/07/13 08:14:05;;;;;;;10.70;4.82;;;19.50;99.90;;;;;;7374052;19;20358;-58
2023/07/13 08:16:32;;;;;;;12.20;4.88;;;19.40;99.90;;;;;;7373612;19;20015;-58
2023/07/13 08:19:00;;;;;;;15.73;4.53;;;19.60;99.90;;;;;;7369386;19;20029;-59
2023/07/13 08:21:26;;;;;;;19.27;10.52;;;19.50;99.90;;;;;;7364475;19;20030;-59
2023/07/13 08:23:52;;;;;;;33.60;24.38;;;19.90;99.90;;;;;;7370241;19;20042;-60
2023/07/13 08:26:19;;;;;;;29.08;20.60;;;20.00;99.90;;;;;;7374944;19;20030;-59
2023/07/13 08:28:45;;;;;;;17.08;9.00;;;19.90;99.90;;;;;;7370074;19;20078;-60
2023/07/13 08:31:12;;;;;;;20.80;12.30;;;19.90;99.90;;;;;;7375709;19;20031;-60
2023/07/13 08:33:40;;;;;;;16.73;8.88;;;19.50;99.90;;;;;;7373442;19;20635;-59
2023/07/13 08:36:07;;;;;;;12.55;5.50;;;19.20;99.90;;;;;;7376597;19;20505;-59
2023/07/13 08:38:33;;;;;;;15.40;8.07;;;18.90;99.90;;;;;;7365879;19;20106;-59
2023/07/13 08:41:09;;;;;;;16.92;10.48;;;18.60;99.90;;;;;;7369089;19;20899;-59
2023/07/13 08:43:37;;;;;;;14.38;6.47;;;18.50;99.90;;;;;;7373619;19;20018;-59
2023/07/13 08:46:16;;;;;;;15.57;7.97;;;18.30;99.90;;;;;;7372930;19;20030;-58
2023/07/13 08:49:10;;;;;;;11.50;6.57;;;18.00;99.90;;;;;;7370640;19;20041;-58
2023/07/13 08:51:50;;;;;;;78.18;65.95;;;17.80;99.90;;;;;;7371032;19;20488;-58
2023/07/13 08:54:30;;;;;;;20.92;15.73;;;17.50;99.90;;;;;;7369023;19;20018;-58
2023/07/13 08:57:00;;;;;;;27.92;21.90;;;17.20;99.90;;;;;;7376772;19;20366;-58
2023/07/13 08:59:31;;;;;;;14.55;7.25;;;17.00;99.90;;;;;;7351631;19;20366;-58
2023/07/13 09:02:37;;;;;;;14.70;6.75;;;16.90;99.90;;;;;;7369793;19;20026;-58
2023/07/13 09:05:08;;;;;;;15.95;8.40;;;16.80;99.90;;;;;;7367211;19;20021;-59
2023/07/13 09:07:53;;;;;;;16.20;9.13;;;16.80;99.90;;;;;;7368705;19;20015;-59
2023/07/13 09:10:31;;;;;;;12.57;8.68;;;16.70;99.90;;;;;;7353309;19;20028;-58
2023/07/13 09:13:23;;;;;;;11.20;7.40;;;16.70;99.90;;;;;;7371903;19;20046;-59
2023/07/13 09:15:51;;;;;;;13.35;7.97;;;16.70;99.90;;;;;;7370870;19;20436;-58
2023/07/13 09:18:46;;;;;;;15.27;9.75;;;16.60;99.90;;;;;;7368646;19;20025;-57
2023/07/13 09:21:28;;;;;;;14.63;9.93;;;16.60;99.90;;;;;;7370106;19;20085;-57
2023/07/13 09:23:58;;;;;;;16.77;9.23;;;16.50;99.90;;;;;;7372737;19;20437;-58
2023/07/13 09:26:29;;;;;;;9.93;6.47;;;16.40;99.90;;;;;;7370840;19;20022;-57
2023/07/13 09:29:21;;;;;;;9.57;4.78;;;16.20;99.90;;;;;;7373876;19;20035;-57
2023/07/13 09:31:54;;;;;;;5.57;2.92;;;16.00;99.90;;;;;;7370608;19;20034;-57
2023/07/13 09:34:20;;;;;;;4.35;2.72;;;15.60;99.90;;;;;;7373375;19;20018;-59
2023/07/13 09:36:46;;;;;;;5.47;2.80;;;15.20;99.90;;;;;;7376845;19;20019;-60
2023/07/13 09:39:22;;;;;;;5.85;3.60;;;14.80;99.90;;;;;;7376229;19;20018;-59
2023/07/13 09:42:00;;;;;;;7.18;4.50;;;14.50;99.90;;;;;;7376125;19;20374;-61
2023/07/13 09:44:35;;;;;;;6.50;4.57;;;14.30;99.90;;;;;;7372926;19;20522;-61
2023/07/13 09:47:02;;;;;;;5.63;4.10;;;14.30;99.90;;;;;;7373670;19;20509;-61
2023/07/13 09:49:36;;;;;;;5.85;4.50;;;14.40;99.90;;;;;;7374997;19;20006;-61
2023/07/13 09:52:10;;;;;;;4.82;4.20;;;14.90;99.90;;;;;;7375036;19;20398;-61
2023/07/13 09:54:37;;;;;;;5.97;4.05;;;15.40;99.90;;;;;;7375020;19;20086;-61
2023/07/13 09:57:13;;;;;;;7.50;4.03;;;15.70;99.90;;;;;;7374450;19;20022;-61
2023/07/13 09:59:47;;;;;;;4.88;3.63;;;15.80;99.90;;;;;;7372977;19;20024;-63
2023/07/13 10:02:35;;;;;;;6.15;3.50;;;16.40;99.90;;;;;;7376975;19;20037;-62
2023/07/13 10:05:07;;;;;;;4.60;2.80;;;17.00;99.90;;;;;;7369048;19;20402;-59
2023/07/13 10:07:39;;;;;;;3.97;2.45;;;17.10;99.90;;;;;;7370684;19;20014;-58
2023/07/13 10:10:15;;;;;;;3.42;2.30;;;17.40;99.90;;;;;;7369789;19;20014;-57
2023/07/13 10:12:43;;;;;;;3.78;2.50;;;17.30;99.90;;;;;;7367216;19;20339;-59
2023/07/13 10:15:25;;;;;;;3.17;2.20;;;17.80;99.90;;;;;;7374387;19;20868;-59
2023/07/13 10:17:54;;;;;;;4.18;2.63;;;18.50;99.90;;;;;;7377927;19;20044;-59
2023/07/13 10:20:21;;;;;;;4.15;2.47;;;19.00;99.90;;;;;;7370268;19;21280;-59
2023/07/13 10:22:56;;;;;;;3.45;2.22;;;19.40;99.90;;;;;;7368935;19;20515;-59
2023/07/13 10:25:31;;;;;;;3.65;2.63;;;19.80;99.90;;;;;;7374880;19;20018;-63
2023/07/13 10:28:21;;;;;;;5.82;3.38;;;20.20;99.90;;;;;;7373258;19;20022;-64
2023/07/13 10:30:49;;;;;;;6.68;3.65;;;20.50;99.90;;;;;;7370870;19;20484;-59
2023/07/13 10:33:15;;;;;;;6.10;3.88;;;20.60;99.90;;;;;;7368129;19;20485;-60
2023/07/13 10:35:44;;;;;;;6.63;3.95;;;20.80;99.90;;;;;;7370198;19;20022;-64
2023/07/13 10:38:20;;;;;;;6.15;3.97;;;21.20;99.90;;;;;;7374459;19;20045;-65
2023/07/13 10:41:07;;;;;;;8.38;4.72;;;21.00;99.90;;;;;;7372677;19;20503;-65
2023/07/13 10:43:50;;;;;;;7.45;4.57;;;21.20;99.90;;;;;;7373362;19;20018;-64
2023/07/13 10:46:20;;;;;;;9.32;4.28;;;21.50;99.90;;;;;;7370699;19;20498;-64
2023/07/13 10:48:52;;;;;;;8.25;4.72;;;21.70;99.90;;;;;;7371865;19;20041;-63
2023/07/13 10:51:23;;;;;;;7.30;3.20;;;22.00;99.90;;;;;;7363266;19;20051;-64
2023/07/13 10:54:17;;;;;;;4.73;3.07;;;21.90;99.90;;;;;;7367913;19;20015;-63
2023/07/13 10:56:45;;;;;;;5.40;2.55;;;22.60;99.90;;;;;;7372301;19;20275;-64
2023/07/13 10:59:19;;;;;;;7.35;3.67;;;23.00;99.90;;;;;;7370634;19;20022;-65
2023/07/13 11:01:51;;;;;;;7.93;3.10;;;23.40;99.90;;;;;;7372735;19;20406;-65
2023/07/13 11:04:20;;;;;;;6.22;3.40;;;24.00;99.90;;;;;;7374715;19;20014;-64
2023/07/13 11:06:49;;;;;;;8.80;3.63;;;24.30;99.90;;;;;;7373778;19;20014;-65
2023/07/13 11:09:33;;;;;;;8.57;3.38;;;24.60;99.90;;;;;;7375022;19;20074;-65
2023/07/13 11:12:09;;;;;;;9.02;3.30;;;24.20;99.90;;;;;;7377904;19;20501;-64
2023/07/13 11:14:41;;;;;;;6.53;3.60;;;23.20;99.90;;;;;;7375211;19;21451;-64
2023/07/13 11:17:29;;;;;;;8.10;4.75;;;22.50;99.90;;;;;;7378326;19;20359;-63
2023/07/13 11:20:12;;;;;;;10.40;4.40;;;22.00;99.90;;;;;;7365516;19;20024;-68
2023/07/13 11:22:48;;;;;;;10.40;4.93;;;20.70;99.90;;;;;;7352437;19;20026;-67
2023/07/13 11:25:28;;;;;;;8.55;4.28;;;19.60;99.90;;;;;;7371906;19;20493;-67
2023/07/13 11:28:11;;;;;;;11.25;4.85;;;18.80;99.90;;;;;;7378913;19;20014;-66
2023/07/13 11:30:43;;;;;;;9.10;5.70;;;18.10;99.90;;;;;;7376158;19;20022;-58
2023/07/13 11:33:12;;;;;;;6.15;5.45;;;17.70;99.90;;;;;;7376764;19;20010;-61
2023/07/13 11:35:50;;;;;;;10.35;5.82;;;17.40;99.90;;;;;;7378080;19;20124;-61
2023/07/13 11:38:21;;;;;;;7.75;5.05;;;17.30;99.90;;;;;;7372642;19;20066;-61
2023/07/13 11:40:50;;;;;;;8.48;6.28;;;17.10;99.90;;;;;;7371105;19;20105;-61
2023/07/13 11:43:17;;;;;;;10.32;9.25;;;17.80;99.90;;;;;;7359983;19;20413;-62
2023/07/13 11:45:44;;;;;;;9.45;6.45;;;18.60;99.90;;;;;;7374385;19;20374;-62
2023/07/13 11:48:37;;;;;;;10.07;5.78;;;19.20;99.90;;;;;;7375991;19;20011;-62
2023/07/13 11:51:05;;;;;;;9.48;4.72;;;20.00;99.90;;;;;;7371601;19;20042;-62
2023/07/13 11:53:40;;;;;;;7.20;4.13;;;20.30;99.90;;;;;;7373215;19;20044;-62
2023/07/13 11:56:07;;;;;;;7.90;4.70;;;19.90;99.90;;;;;;7369796;19;20022;-62
2023/07/13 11:58:34;;;;;;;6.78;4.65;;;19.90;99.90;;;;;;7371659;19;21340;-62
2023/07/13 12:01:06;;;;;;;5.93;4.25;;;19.60;99.90;;;;;;7354733;19;20022;-62
2023/07/13 12:03:34;;;;;;;7.68;4.78;;;19.40;99.90;;;;;;7373417;19;20496;-62
2023/07/13 12:06:05;;;;;;;6.18;4.78;;;19.40;99.90;;;;;;7364830;19;20022;-62
2023/07/13 12:08:40;;;;;;;6.72;4.93;;;19.30;99.90;;;;;;7374691;19;20022;-61
2023/07/13 12:11:16;;;;;;;9.70;5.43;;;19.30;99.90;;;;;;7371264;19;20572;-61
2023/07/13 12:13:44;;;;;;;7.55;5.03;;;20.00;99.90;;;;;;7366310;19;20021;-62
2023/07/13 12:16:33;;;;;;;8.85;4.97;;;20.60;99.90;;;;;;7370527;19;20011;-62
2023/07/13 12:19:02;;;;;;;8.38;4.30;;;20.80;99.90;;;;;;7373718;19;20028;-62
2023/07/13 12:21:37;;;;;;;9.68;5.32;;;20.60;99.90;;;;;;7370686;19;20042;-62
2023/07/13 12:24:05;;;;;;;7.70;4.70;;;21.10;99.90;;;;;;7374671;19;20354;-62
2023/07/13 12:26:32;;;;;;;5.15;3.35;;;21.40;99.90;;;;;;7369368;19;20061;-63
2023/07/13 12:29:05;;;;;;;7.70;3.80;;;21.50;99.90;;;;;;7375017;19;20417;-63
2023/07/13 12:31:44;;;;;;;5.88;3.15;;;21.40;99.90;;;;;;7375126;19;20014;-63
2023/07/13 12:34:16;;;;;;;6.53;3.40;;;21.20;99.90;;;;;;7382574;19;20014;-62
2023/07/13 12:36:48;;;;;;;6.35;3.55;;;21.50;99.90;;;;;;7379017;19;20018;-63
2023/07/13 12:39:19;;;;;;;7.07;3.33;;;22.20;99.90;;;;;;7377341;19;20422;-64
2023/07/13 12:41:46;;;;;;;6.50;2.92;;;23.10;99.90;;;;;;7372657;19;20034;-63
2023/07/13 12:44:18;;;;;;;6.35;2.60;;;22.80;99.90;;;;;;7381509;19;20018;-63
2023/07/13 12:46:54;;;;;;;4.88;2.00;;;22.90;99.90;;;;;;7376814;19;20041;-63
2023/07/13 12:49:24;;;;;;;5.90;1.48;;;23.20;99.90;;;;;;7377121;19;20019;-63